LEBBLECO [WT0000]

Details From LEBB - Bilbao
To LECO - A Coruna
Flight Number WT0000
Tags Novice Commercial Decoded
Created
Modified
Stats Distance 238 nm / 441 km
Max Altitude 0 ft / 0 m
Waypoints 2
Social Downloads 14
Likes 0
Share VATSIM

Download

Looking for another format? Having issues loading an existing format? Contact us
Advertisement - Login to hide

Notes

Decoded

Route

LEBB LECO

ID Type Via Altitude Latitude Longitude Leg Dist Tot Dist Heading (true) Name
O LEBB APT - 0 ft / 0 m 43.30335˚ -2.93703˚ - 0 nm - -
O LECO APT - 0 ft / 0 m 43.29478˚ -8.38323˚ 238 nm 238 nm 272° / 268° -

Altitude Profile

Advertisement - Login to hide

Weather


0- 5 10 15 20 25 30 35+ Temperature / ° C

Clouds and Precipitation
Forecast for 2018-05-24 06:00 UTC. Updated 3 hours ago

Ground ~20,000 ft ~40,000 ft Winds

LEBB

Details ICAO LEBB (BIO)
Name Bilbao
Region Spain
Timezone Europe/Madrid (UTC+2.0)
Stats Elevation 137 ft / 42 m (AMSL)
Location 43.301692° -2.917664°
Runways 2
Magnetic Variation 0.574° W

METAR

LEBB 240730Z VRB01KT 7000 FEW015 19/16 Q1016 TEMPO 3000 BR

Decode

TAF

TAF LEBB 240500Z 2406/2506 VRB04KT 9999 SCT010 TX25/2414Z TN15/2406Z PROB40 TEMPO 2406/2408 3000 BR BKN010 PROB40 TEMPO 2409/2503 3000 SHRA BKN014 SCT025TCU TEMPO 2411/2418 34010KT PROB40 TEMPO 2414/2421 3000 TSRA BKN010 SCT025CB

Decode

Departure Runways

ID Width Length Bearing (true) Bearing (mag) Surface Threshold Offset Overrun Length
10 148 ft / 45 m 6,569 ft / 2,002 m 96.66° 97.23° Asphalt 20 ft / 6 m 184 ft / 56 m
12 148 ft / 45 m 8,539 ft / 2,603 m 116.73° 117.30° Asphalt 20 ft / 6 m 197 ft / 60 m
28 148 ft / 45 m 6,569 ft / 2,002 m 276.68° 277.25° Asphalt 23 ft / 7 m 0 ft / 0 m
30 148 ft / 45 m 8,539 ft / 2,603 m 296.75° 297.32° Asphalt 1,509 ft / 460 m 171 ft / 52 m

LECO

Details ICAO LECO (LCG)
Name A Coruna
Region Spain
Timezone Europe/Madrid (UTC+2.0)
Stats Elevation 323 ft / 98 m (AMSL)
Location 43.302264° -8.377086°
Runways 1
Magnetic Variation 2.332° W

METAR

LECO 240730Z VRB02KT 7000 NSC 16/14 Q1015 NOSIG

Decode

TAF

TAF AMD TAF AMD LECO 240526Z 2405/2503 VRB04KT 8000 NSC TX24/2414Z TN11/2406Z TEMPO 2405/2408 1500 BCFG BKN002 PROB40 TEMPO 2405/2407 0350 FG VV001 PROB40 TEMPO 2412/2418 SHRA SCT025TCU TEMPO 2411/2419 35010KT PROB40 TEMPO 2500/2503 1500 BCFG BKN002

Decode

Destination Runways

ID Width Length Bearing (true) Bearing (mag) Surface Threshold Offset Overrun Length
04 148 ft / 45 m 6,371 ft / 1,942 m 30.94° 33.27° Asphalt 0 ft / 0 m 194 ft / 59 m
22 148 ft / 45 m 6,371 ft / 1,942 m 210.94° 213.27° Asphalt 0 ft / 0 m 203 ft / 62 m

Approach Navaids

Runway Type Ident Frequency Range Bearing (true) Bearing (mag) Slope Elevation
22 Localiser LCO 109.90 MHz 18 nm / 33 km 210.89° 213.22° - 329 ft / 100 m (AMSL)
22 Glidescope LCO 109.90 MHz 10 nm / 19 km 210.94° 213.27° 3.00° 323 ft / 98 m (AMSL)
22 DME LCO 109.90 MHz 18 nm / 33 km - - - 293 ft / 89 m (AMSL)

Popular Alternatives